sensor_id;sensor_type;location;lat;lon;timestamp;temperature;humidity
439;DHT22;206;48.782;9.252;2023-02-22T00:00:49;7.80;55.00
439;DHT22;206;48.782;9.252;2023-02-22T00:03:25;7.80;55.20
439;DHT22;206;48.782;9.252;2023-02-22T00:05:56;7.80;55.30
439;DHT22;206;48.782;9.252;2023-02-22T00:08:27;7.70;55.40
439;DHT22;206;48.782;9.252;2023-02-22T00:10:57;7.70;55.50
439;DHT22;206;48.782;9.252;2023-02-22T00:13:23;7.70;55.20
439;DHT22;206;48.782;9.252;2023-02-22T00:15:48;7.80;55.30
439;DHT22;206;48.782;9.252;2023-02-22T00:18:16;7.80;55.00
439;DHT22;206;48.782;9.252;2023-02-22T00:20:42;7.80;54.90
439;DHT22;206;48.782;9.252;2023-02-22T00:23:13;7.80;54.70
439;DHT22;206;48.782;9.252;2023-02-22T00:25:39;7.80;54.60
439;DHT22;206;48.782;9.252;2023-02-22T00:28:05;7.80;54.50
439;DHT22;206;48.782;9.252;2023-02-22T00:30:31;7.70;54.40
439;DHT22;206;48.782;9.252;2023-02-22T00:32:58;7.70;54.70
439;DHT22;206;48.782;9.252;2023-02-22T00:35:28;7.70;54.70
439;DHT22;206;48.782;9.252;2023-02-22T00:37:56;7.70;54.60
439;DHT22;206;48.782;9.252;2023-02-22T00:40:33;7.70;54.70
439;DHT22;206;48.782;9.252;2023-02-22T00:43:01;7.70;54.60
439;DHT22;206;48.782;9.252;2023-02-22T00:45:30;7.70;55.00
439;DHT22;206;48.782;9.252;2023-02-22T00:47:56;7.70;54.60
439;DHT22;206;48.782;9.252;2023-02-22T00:50:24;7.70;54.80
439;DHT22;206;48.782;9.252;2023-02-22T00:52:51;7.70;54.60
439;DHT22;206;48.782;9.252;2023-02-22T00:55:22;7.70;54.80
439;DHT22;206;48.782;9.252;2023-02-22T00:57:48;7.70;54.40
439;DHT22;206;48.782;9.252;2023-02-22T01:00:28;7.70;55.20
439;DHT22;206;48.782;9.252;2023-02-22T01:02:54;7.60;54.60
439;DHT22;206;48.782;9.252;2023-02-22T01:05:23;7.60;54.70
439;DHT22;206;48.782;9.252;2023-02-22T01:07:49;7.60;55.00
439;DHT22;206;48.782;9.252;2023-02-22T01:10:17;7.60;54.70
439;DHT22;206;48.782;9.252;2023-02-22T01:12:44;7.60;55.00
439;DHT22;206;48.782;9.252;2023-02-22T01:15:10;7.50;55.80
439;DHT22;206;48.782;9.252;2023-02-22T01:17:38;7.50;55.20
439;DHT22;206;48.782;9.252;2023-02-22T01:20:07;7.50;55.30
439;DHT22;206;48.782;9.252;2023-02-22T01:22:40;7.50;54.90
439;DHT22;206;48.782;9.252;2023-02-22T01:25:07;7.50;55.10
439;DHT22;206;48.782;9.252;2023-02-22T01:27:36;7.50;55.00
439;DHT22;206;48.782;9.252;2023-02-22T01:30:04;7.50;55.20
439;DHT22;206;48.782;9.252;2023-02-22T01:32:34;7.40;55.00
439;DHT22;206;48.782;9.252;2023-02-22T01:35:00;7.40;55.40
439;DHT22;206;48.782;9.252;2023-02-22T01:37:25;7.40;55.30
439;DHT22;206;48.782;9.252;2023-02-22T01:39:51;7.40;55.10
439;DHT22;206;48.782;9.252;2023-02-22T01:42:17;7.40;55.00
439;DHT22;206;48.782;9.252;2023-02-22T01:44:42;7.40;55.00
439;DHT22;206;48.782;9.252;2023-02-22T01:47:08;7.40;55.00
439;DHT22;206;48.782;9.252;2023-02-22T01:49:39;7.40;54.70
439;DHT22;206;48.782;9.252;2023-02-22T01:52:08;7.40;54.80
439;DHT22;206;48.782;9.252;2023-02-22T01:54:38;7.40;54.50
439;DHT22;206;48.782;9.252;2023-02-22T01:59:51;7.30;54.80
439;DHT22;206;48.782;9.252;2023-02-22T02:02:18;7.20;54.80
439;DHT22;206;48.782;9.252;2023-02-22T02:04:46;7.20;55.10
439;DHT22;206;48.782;9.252;2023-02-22T02:07:14;7.20;55.30
439;DHT22;206;48.782;9.252;2023-02-22T02:09:47;7.20;55.20
439;DHT22;206;48.782;9.252;2023-02-22T02:12:17;7.20;55.20
439;DHT22;206;48.782;9.252;2023-02-22T02:14:45;7.20;55.20
439;DHT22;206;48.782;9.252;2023-02-22T02:17:16;7.20;55.00
439;DHT22;206;48.782;9.252;2023-02-22T02:20:07;7.20;54.90
439;DHT22;206;48.782;9.252;2023-02-22T02:22:55;7.20;54.60
439;DHT22;206;48.782;9.252;2023-02-22T02:36:56;7.10;54.80
439;DHT22;206;48.782;9.252;2023-02-22T02:39:32;7.00;55.00
439;DHT22;206;48.782;9.252;2023-02-22T02:41:59;7.00;55.50
439;DHT22;206;48.782;9.252;2023-02-22T02:44:36;6.90;55.60
439;DHT22;206;48.782;9.252;2023-02-22T02:47:09;6.90;55.70
439;DHT22;206;48.782;9.252;2023-02-22T02:49:45;6.90;55.50
439;DHT22;206;48.782;9.252;2023-02-22T02:52:14;6.90;56.10
439;DHT22;206;48.782;9.252;2023-02-22T02:54:41;6.80;56.20
439;DHT22;206;48.782;9.252;2023-02-22T02:57:07;6.80;56.40
439;DHT22;206;48.782;9.252;2023-02-22T02:59:35;6.80;56.50
439;DHT22;206;48.782;9.252;2023-02-22T03:02:25;6.70;56.30
439;DHT22;206;48.782;9.252;2023-02-22T03:05:03;6.70;56.30
439;DHT22;206;48.782;9.252;2023-02-22T03:08:00;6.70;56.30
439;DHT22;206;48.782;9.252;2023-02-22T03:19:10;6.50;57.00
439;DHT22;206;48.782;9.252;2023-02-22T03:29:29;6.50;57.10
439;DHT22;206;48.782;9.252;2023-02-22T03:32:00;6.50;57.30
439;DHT22;206;48.782;9.252;2023-02-22T03:34:41;6.50;57.30
439;DHT22;206;48.782;9.252;2023-02-22T03:37:19;6.40;57.60
439;DHT22;206;48.782;9.252;2023-02-22T03:39:48;6.40;57.80
439;DHT22;206;48.782;9.252;2023-02-22T03:42:27;6.40;57.90
439;DHT22;206;48.782;9.252;2023-02-22T03:44:57;6.30;58.00
439;DHT22;206;48.782;9.252;2023-02-22T03:47:31;6.30;57.90
439;DHT22;206;48.782;9.252;2023-02-22T03:50:09;6.30;57.70
439;DHT22;206;48.782;9.252;2023-02-22T03:52:36;6.30;57.80
439;DHT22;206;48.782;9.252;2023-02-22T03:55:03;6.30;57.70
439;DHT22;206;48.782;9.252;2023-02-22T03:57:36;6.30;58.00
439;DHT22;206;48.782;9.252;2023-02-22T04:00:06;6.30;58.10
439;DHT22;206;48.782;9.252;2023-02-22T04:02:33;6.30;58.40
439;DHT22;206;48.782;9.252;2023-02-22T04:04:59;6.30;58.30
439;DHT22;206;48.782;9.252;2023-02-22T04:07:25;6.20;58.40
439;DHT22;206;48.782;9.252;2023-02-22T04:09:50;6.20;58.30
439;DHT22;206;48.782;9.252;2023-02-22T04:12:16;6.20;58.20
439;DHT22;206;48.782;9.252;2023-02-22T04:14:42;6.20;58.10
439;DHT22;206;48.782;9.252;2023-02-22T04:17:07;6.20;58.10
439;DHT22;206;48.782;9.252;2023-02-22T04:19:34;6.20;57.90
439;DHT22;206;48.782;9.252;2023-02-22T04:21:59;6.20;58.10
439;DHT22;206;48.782;9.252;2023-02-22T04:24:25;6.10;58.40
439;DHT22;206;48.782;9.252;2023-02-22T04:26:50;6.10;58.40
439;DHT22;206;48.782;9.252;2023-02-22T04:29:16;6.10;59.00
439;DHT22;206;48.782;9.252;2023-02-22T04:31:41;6.10;59.30
439;DHT22;206;48.782;9.252;2023-02-22T04:34:14;6.10;60.10
439;DHT22;206;48.782;9.252;2023-02-22T04:36:39;6.10;59.90
439;DHT22;206;48.782;9.252;2023-02-22T04:39:06;6.10;59.70
439;DHT22;206;48.782;9.252;2023-02-22T04:41:32;6.10;59.50
439;DHT22;206;48.782;9.252;2023-02-22T04:43:58;6.10;59.70
439;DHT22;206;48.782;9.252;2023-02-22T04:46:24;6.00;59.70
439;DHT22;206;48.782;9.252;2023-02-22T04:48:50;6.10;60.20
439;DHT22;206;48.782;9.252;2023-02-22T04:51:15;6.00;60.30
439;DHT22;206;48.782;9.252;2023-02-22T04:53:41;6.00;60.30
439;DHT22;206;48.782;9.252;2023-02-22T04:56:07;6.00;60.30
439;DHT22;206;48.782;9.252;2023-02-22T04:58:32;6.00;60.30
439;DHT22;206;48.782;9.252;2023-02-22T05:00:59;6.00;60.20
439;DHT22;206;48.782;9.252;2023-02-22T05:03:25;6.00;59.90
439;DHT22;206;48.782;9.252;2023-02-22T05:05:51;6.10;59.60
439;DHT22;206;48.782;9.252;2023-02-22T05:08:17;6.00;59.70
439;DHT22;206;48.782;9.252;2023-02-22T05:10:42;6.00;59.80
439;DHT22;206;48.782;9.252;2023-02-22T05:13:08;6.00;60.00
439;DHT22;206;48.782;9.252;2023-02-22T05:15:33;6.00;60.30
439;DHT22;206;48.782;9.252;2023-02-22T05:17:59;6.00;60.30
439;DHT22;206;48.782;9.252;2023-02-22T05:20:26;6.00;60.30
439;DHT22;206;48.782;9.252;2023-02-22T05:22:57;6.00;60.30
439;DHT22;206;48.782;9.252;2023-02-22T05:25:24;5.90;60.40
439;DHT22;206;48.782;9.252;2023-02-22T05:27:58;5.90;60.90
439;DHT22;206;48.782;9.252;2023-02-22T05:30:31;5.90;60.80
439;DHT22;206;48.782;9.252;2023-02-22T05:32:56;5.90;61.00
439;DHT22;206;48.782;9.252;2023-02-22T05:35:24;6.00;60.90
439;DHT22;206;48.782;9.252;2023-02-22T05:37:50;6.00;60.30
439;DHT22;206;48.782;9.252;2023-02-22T05:40:21;6.00;60.30
439;DHT22;206;48.782;9.252;2023-02-22T05:42:48;6.00;60.30
439;DHT22;206;48.782;9.252;2023-02-22T05:45:16;6.00;60.30
439;DHT22;206;48.782;9.252;2023-02-22T05:47:42;6.00;60.30
439;DHT22;206;48.782;9.252;2023-02-22T05:50:08;6.00;60.00
439;DHT22;206;48.782;9.252;2023-02-22T05:52:34;6.00;59.70
439;DHT22;206;48.782;9.252;2023-02-22T05:55:00;6.00;60.00
439;DHT22;206;48.782;9.252;2023-02-22T05:57:25;6.00;59.50
439;DHT22;206;48.782;9.252;2023-02-22T05:59:51;6.00;59.70
439;DHT22;206;48.782;9.252;2023-02-22T06:02:16;6.00;58.90
439;DHT22;206;48.782;9.252;2023-02-22T06:04:46;6.00;58.60
439;DHT22;206;48.782;9.252;2023-02-22T06:07:12;6.00;58.40
439;DHT22;206;48.782;9.252;2023-02-22T06:09:42;6.00;58.20
439;DHT22;206;48.782;9.252;2023-02-22T06:12:08;6.10;58.50
439;DHT22;206;48.782;9.252;2023-02-22T06:14:34;6.10;57.90
439;DHT22;206;48.782;9.252;2023-02-22T06:17:00;6.10;57.60
439;DHT22;206;48.782;9.252;2023-02-22T06:19:26;6.10;57.90
439;DHT22;206;48.782;9.252;2023-02-22T06:21:54;6.10;57.50
439;DHT22;206;48.782;9.252;2023-02-22T06:24:21;6.10;57.40
439;DHT22;206;48.782;9.252;2023-02-22T06:26:54;6.10;56.90
439;DHT22;206;48.782;9.252;2023-02-22T06:29:20;6.10;57.20
439;DHT22;206;48.782;9.252;2023-02-22T06:31:45;6.10;57.40
439;DHT22;206;48.782;9.252;2023-02-22T06:34:11;6.10;56.60
439;DHT22;206;48.782;9.252;2023-02-22T06:36:36;6.10;56.80
439;DHT22;206;48.782;9.252;2023-02-22T06:39:02;6.10;57.00
439;DHT22;206;48.782;9.252;2023-02-22T06:41:28;6.10;56.70
439;DHT22;206;48.782;9.252;2023-02-22T06:43:53;6.20;56.60
439;DHT22;206;48.782;9.252;2023-02-22T06:46:19;6.20;56.20
439;DHT22;206;48.782;9.252;2023-02-22T06:48:46;6.20;55.90
439;DHT22;206;48.782;9.252;2023-02-22T06:51:11;6.30;56.00
439;DHT22;206;48.782;9.252;2023-02-22T06:53:37;6.30;55.90
439;DHT22;206;48.782;9.252;2023-02-22T06:56:03;6.40;55.40
439;DHT22;206;48.782;9.252;2023-02-22T06:58:28;6.50;54.70
439;DHT22;206;48.782;9.252;2023-02-22T07:00:54;6.60;54.10
439;DHT22;206;48.782;9.252;2023-02-22T07:03:20;6.70;53.30
439;DHT22;206;48.782;9.252;2023-02-22T07:05:45;6.80;52.90
439;DHT22;206;48.782;9.252;2023-02-22T07:08:11;6.80;51.70
439;DHT22;206;48.782;9.252;2023-02-22T07:10:38;6.90;51.80
439;DHT22;206;48.782;9.252;2023-02-22T07:13:05;7.00;50.90
439;DHT22;206;48.782;9.252;2023-02-22T07:15:32;7.10;50.80
439;DHT22;206;48.782;9.252;2023-02-22T07:17:59;7.20;50.10
439;DHT22;206;48.782;9.252;2023-02-22T07:20:26;7.30;49.40
439;DHT22;206;48.782;9.252;2023-02-22T07:22:52;7.40;49.40
439;DHT22;206;48.782;9.252;2023-02-22T07:25:18;7.50;48.00
439;DHT22;206;48.782;9.252;2023-02-22T07:27:44;7.50;47.50
439;DHT22;206;48.782;9.252;2023-02-22T07:30:20;7.60;47.60
439;DHT22;206;48.782;9.252;2023-02-22T07:32:46;7.80;47.20
439;DHT22;206;48.782;9.252;2023-02-22T07:35:21;7.90;46.00
439;DHT22;206;48.782;9.252;2023-02-22T07:37:47;7.90;45.20
439;DHT22;206;48.782;9.252;2023-02-22T07:40:13;8.00;44.60
439;DHT22;206;48.782;9.252;2023-02-22T07:43:02;8.10;43.90
439;DHT22;206;48.782;9.252;2023-02-22T07:45:33;8.20;43.40
439;DHT22;206;48.782;9.252;2023-02-22T07:48:00;8.20;43.20
439;DHT22;206;48.782;9.252;2023-02-22T07:50:28;8.30;43.30
439;DHT22;206;48.782;9.252;2023-02-22T07:52:59;8.30;43.30
439;DHT22;206;48.782;9.252;2023-02-22T07:55:27;8.40;43.10
439;DHT22;206;48.782;9.252;2023-02-22T07:57:56;8.50;42.10
439;DHT22;206;48.782;9.252;2023-02-22T08:00:34;8.50;42.00
439;DHT22;206;48.782;9.252;2023-02-22T08:03:02;8.70;41.30
439;DHT22;206;48.782;9.252;2023-02-22T08:05:30;8.80;40.30
439;DHT22;206;48.782;9.252;2023-02-22T08:07:56;8.90;39.80
439;DHT22;206;48.782;9.252;2023-02-22T08:10:23;9.00;38.90
439;DHT22;206;48.782;9.252;2023-02-22T08:12:50;9.00;38.40
439;DHT22;206;48.782;9.252;2023-02-22T08:15:38;9.10;38.30
439;DHT22;206;48.782;9.252;2023-02-22T08:18:06;9.20;37.60
439;DHT22;206;48.782;9.252;2023-02-22T08:20:34;9.30;37.10
439;DHT22;206;48.782;9.252;2023-02-22T08:22:59;9.40;36.60
439;DHT22;206;48.782;9.252;2023-02-22T08:25:27;9.60;35.90
439;DHT22;206;48.782;9.252;2023-02-22T08:27:58;9.80;35.30
439;DHT22;206;48.782;9.252;2023-02-22T08:30:26;9.90;34.70
439;DHT22;206;48.782;9.252;2023-02-22T08:32:52;10.00;33.00
439;DHT22;206;48.782;9.252;2023-02-22T08:35:19;10.10;32.40
439;DHT22;206;48.782;9.252;2023-02-22T08:37:47;10.20;32.80
439;DHT22;206;48.782;9.252;2023-02-22T08:40:15;10.30;32.30
439;DHT22;206;48.782;9.252;2023-02-22T08:42:42;10.50;31.40
439;DHT22;206;48.782;9.252;2023-02-22T08:45:08;10.70;31.10
439;DHT22;206;48.782;9.252;2023-02-22T08:47:34;10.80;30.70
439;DHT22;206;48.782;9.252;2023-02-22T08:50:00;10.80;29.70
439;DHT22;206;48.782;9.252;2023-02-22T08:52:25;10.80;30.40
439;DHT22;206;48.782;9.252;2023-02-22T08:54:51;11.00;29.80
439;DHT22;206;48.782;9.252;2023-02-22T08:57:17;10.90;30.20
439;DHT22;206;48.782;9.252;2023-02-22T08:59:42;10.90;29.70
439;DHT22;206;48.782;9.252;2023-02-22T09:02:19;10.90;30.00
439;DHT22;206;48.782;9.252;2023-02-22T09:04:46;10.90;30.30
439;DHT22;206;48.782;9.252;2023-02-22T09:07:12;10.90;30.70
439;DHT22;206;48.782;9.252;2023-02-22T09:09:38;11.00;30.90
439;DHT22;206;48.782;9.252;2023-02-22T09:12:04;11.10;30.60
439;DHT22;206;48.782;9.252;2023-02-22T09:14:30;11.10;30.40
439;DHT22;206;48.782;9.252;2023-02-22T09:16:55;11.10;30.50
439;DHT22;206;48.782;9.252;2023-02-22T09:19:21;11.20;30.60
439;DHT22;206;48.782;9.252;2023-02-22T09:21:53;11.20;29.90
439;DHT22;206;48.782;9.252;2023-02-22T09:24:19;11.20;30.50
439;DHT22;206;48.782;9.252;2023-02-22T09:26:48;11.30;30.10
439;DHT22;206;48.782;9.252;2023-02-22T09:29:22;11.30;30.00
439;DHT22;206;48.782;9.252;2023-02-22T09:31:50;11.30;30.20
439;DHT22;206;48.782;9.252;2023-02-22T09:34:17;11.40;30.00
439;DHT22;206;48.782;9.252;2023-02-22T09:36:46;11.50;30.10
439;DHT22;206;48.782;9.252;2023-02-22T09:39:13;11.50;29.90
439;DHT22;206;48.782;9.252;2023-02-22T09:41:52;11.60;30.20
439;DHT22;206;48.782;9.252;2023-02-22T09:46:52;11.80;29.60
439;DHT22;206;48.782;9.252;2023-02-22T09:49:26;11.90;29.70
439;DHT22;206;48.782;9.252;2023-02-22T09:52:16;11.90;29.40
439;DHT22;206;48.782;9.252;2023-02-22T09:57:39;12.10;29.40
439;DHT22;206;48.782;9.252;2023-02-22T10:00:21;12.10;29.30
439;DHT22;206;48.782;9.252;2023-02-22T10:05:33;12.20;29.40
439;DHT22;206;48.782;9.252;2023-02-22T10:08:04;12.30;29.60
439;DHT22;206;48.782;9.252;2023-02-22T10:10:36;12.50;28.80
439;DHT22;206;48.782;9.252;2023-02-22T10:13:28;12.60;28.90
439;DHT22;206;48.782;9.252;2023-02-22T10:16:08;12.90;28.70
439;DHT22;206;48.782;9.252;2023-02-22T10:18:48;13.20;28.20
439;DHT22;206;48.782;9.252;2023-02-22T10:21:26;13.40;27.50
439;DHT22;206;48.782;9.252;2023-02-22T10:26:33;13.90;26.70
439;DHT22;206;48.782;9.252;2023-02-22T10:31:45;14.30;26.00
439;DHT22;206;48.782;9.252;2023-02-22T10:34:16;14.50;25.80
439;DHT22;206;48.782;9.252;2023-02-22T10:36:46;14.80;25.10
439;DHT22;206;48.782;9.252;2023-02-22T10:41:56;15.20;23.30
439;DHT22;206;48.782;9.252;2023-02-22T10:44:22;15.20;23.10
439;DHT22;206;48.782;9.252;2023-02-22T10:46:48;15.30;22.80
439;DHT22;206;48.782;9.252;2023-02-22T10:49:20;15.50;22.70
439;DHT22;206;48.782;9.252;2023-02-22T10:51:56;15.70;21.80
439;DHT22;206;48.782;9.252;2023-02-22T10:54:27;15.90;21.70
439;DHT22;206;48.782;9.252;2023-02-22T10:56:55;16.10;21.20
439;DHT22;206;48.782;9.252;2023-02-22T10:59:31;16.10;21.20
439;DHT22;206;48.782;9.252;2023-02-22T11:01:58;16.10;21.20
439;DHT22;206;48.782;9.252;2023-02-22T11:04:24;16.10;21.70
439;DHT22;206;48.782;9.252;2023-02-22T11:07:34;16.20;21.20
439;DHT22;206;48.782;9.252;2023-02-22T11:10:03;16.40;21.40
439;DHT22;206;48.782;9.252;2023-02-22T11:12:37;16.40;21.40
439;DHT22;206;48.782;9.252;2023-02-22T11:15:26;16.50;21.10
439;DHT22;206;48.782;9.252;2023-02-22T11:17:55;16.60;20.90
439;DHT22;206;48.782;9.252;2023-02-22T11:20:31;16.60;20.90
439;DHT22;206;48.782;9.252;2023-02-22T11:23:02;16.50;20.80
439;DHT22;206;48.782;9.252;2023-02-22T11:25:31;16.40;21.10
439;DHT22;206;48.782;9.252;2023-02-22T11:28:21;16.20;21.20
439;DHT22;206;48.782;9.252;2023-02-22T11:30:57;15.90;21.90
439;DHT22;206;48.782;9.252;2023-02-22T11:33:24;15.70;22.40
439;DHT22;206;48.782;9.252;2023-02-22T11:35:52;15.80;22.40
439;DHT22;206;48.782;9.252;2023-02-22T11:38:22;15.70;22.60
439;DHT22;206;48.782;9.252;2023-02-22T11:41:14;15.70;22.90
439;DHT22;206;48.782;9.252;2023-02-22T11:43:45;15.40;23.60
439;DHT22;206;48.782;9.252;2023-02-22T11:46:12;15.20;23.80
439;DHT22;206;48.782;9.252;2023-02-22T11:48:41;15.30;23.90
439;DHT22;206;48.782;9.252;2023-02-22T11:51:25;15.40;23.60
439;DHT22;206;48.782;9.252;2023-02-22T11:57:21;15.50;23.70
439;DHT22;206;48.782;9.252;2023-02-22T12:00:03;15.30;24.30
439;DHT22;206;48.782;9.252;2023-02-22T12:02:51;15.50;24.10
439;DHT22;206;48.782;9.252;2023-02-22T12:21:58;15.70;23.90
439;DHT22;206;48.782;9.252;2023-02-22T12:24:32;15.80;23.70
439;DHT22;206;48.782;9.252;2023-02-22T12:27:12;15.90;23.60
439;DHT22;206;48.782;9.252;2023-02-22T12:29:49;16.10;23.40
439;DHT22;206;48.782;9.252;2023-02-22T12:34:52;16.20;22.60
439;DHT22;206;48.782;9.252;2023-02-22T12:37:25;16.20;22.70
439;DHT22;206;48.782;9.252;2023-02-22T12:40:15;16.20;22.70
439;DHT22;206;48.782;9.252;2023-02-22T12:45:44;16.10;22.60
439;DHT22;206;48.782;9.252;2023-02-22T12:53:50;16.20;22.40
439;DHT22;206;48.782;9.252;2023-02-22T12:56:44;16.00;22.20
439;DHT22;206;48.782;9.252;2023-02-22T13:01:59;16.30;21.80
439;DHT22;206;48.782;9.252;2023-02-22T13:04:25;16.40;21.40
439;DHT22;206;48.782;9.252;2023-02-22T13:10:06;16.50;20.80
439;DHT22;206;48.782;9.252;2023-02-22T13:15:46;16.50;20.40
439;DHT22;206;48.782;9.252;2023-02-22T13:18:49;16.60;20.50
439;DHT22;206;48.782;9.252;2023-02-22T13:29:36;16.50;20.00
439;DHT22;206;48.782;9.252;2023-02-22T13:51:59;16.60;19.30
439;DHT22;206;48.782;9.252;2023-02-22T13:54:43;16.50;19.40
439;DHT22;206;48.782;9.252;2023-02-22T13:57:38;16.30;19.40
439;DHT22;206;48.782;9.252;2023-02-22T14:13:11;15.80;20.60
439;DHT22;206;48.782;9.252;2023-02-22T14:18:43;15.50;21.40
439;DHT22;206;48.782;9.252;2023-02-22T14:21:16;15.40;21.80
439;DHT22;206;48.782;9.252;2023-02-22T14:23:48;15.40;21.80
439;DHT22;206;48.782;9.252;2023-02-22T14:26:36;15.20;21.50
439;DHT22;206;48.782;9.252;2023-02-22T14:34:14;15.40;21.10
439;DHT22;206;48.782;9.252;2023-02-22T14:36:42;15.30;21.20
439;DHT22;206;48.782;9.252;2023-02-22T14:39:18;15.30;21.40
439;DHT22;206;48.782;9.252;2023-02-22T14:42:18;15.30;21.50
439;DHT22;206;48.782;9.252;2023-02-22T14:50:20;15.50;21.60
439;DHT22;206;48.782;9.252;2023-02-22T14:53:00;15.60;21.80
439;DHT22;206;48.782;9.252;2023-02-22T14:55:26;15.70;22.10
439;DHT22;206;48.782;9.252;2023-02-22T14:58:07;15.70;22.40
439;DHT22;206;48.782;9.252;2023-02-22T15:00:42;15.80;22.60
439;DHT22;206;48.782;9.252;2023-02-22T15:03:36;15.90;23.40
439;DHT22;206;48.782;9.252;2023-02-22T15:06:17;15.70;23.20
439;DHT22;206;48.782;9.252;2023-02-22T15:08:45;15.70;23.10
439;DHT22;206;48.782;9.252;2023-02-22T15:11:27;15.80;23.30
439;DHT22;206;48.782;9.252;2023-02-22T15:14:00;15.70;23.20
439;DHT22;206;48.782;9.252;2023-02-22T15:16:32;15.70;23.20
439;DHT22;206;48.782;9.252;2023-02-22T15:19:02;15.70;23.50
439;DHT22;206;48.782;9.252;2023-02-22T15:21:29;15.70;23.80
439;DHT22;206;48.782;9.252;2023-02-22T15:24:02;15.70;23.80
439;DHT22;206;48.782;9.252;2023-02-22T15:26:37;15.70;24.60
439;DHT22;206;48.782;9.252;2023-02-22T15:29:14;15.50;25.30
439;DHT22;206;48.782;9.252;2023-02-22T15:31:41;15.50;25.80
439;DHT22;206;48.782;9.252;2023-02-22T15:36:45;15.60;26.00
439;DHT22;206;48.782;9.252;2023-02-22T15:39:30;15.50;26.40
439;DHT22;206;48.782;9.252;2023-02-22T15:42:12;15.50;26.40
439;DHT22;206;48.782;9.252;2023-02-22T15:44:47;15.40;26.50
439;DHT22;206;48.782;9.252;2023-02-22T15:47:25;15.40;26.70
439;DHT22;206;48.782;9.252;2023-02-22T15:55:42;15.10;27.70
439;DHT22;206;48.782;9.252;2023-02-22T16:00:41;14.90;28.50
439;DHT22;206;48.782;9.252;2023-02-22T16:03:15;14.90;28.50
439;DHT22;206;48.782;9.252;2023-02-22T16:08:39;14.90;28.50
439;DHT22;206;48.782;9.252;2023-02-22T16:11:13;14.90;28.50
439;DHT22;206;48.782;9.252;2023-02-22T16:13:41;14.80;28.40
439;DHT22;206;48.782;9.252;2023-02-22T16:18:50;14.80;28.40
439;DHT22;206;48.782;9.252;2023-02-22T16:21:19;14.80;28.40
439;DHT22;206;48.782;9.252;2023-02-22T16:23:48;14.80;28.40
439;DHT22;206;48.782;9.252;2023-02-22T16:26:19;14.80;28.40
439;DHT22;206;48.782;9.252;2023-02-22T16:28:50;14.80;28.40
439;DHT22;206;48.782;9.252;2023-02-22T16:31:18;14.80;28.40
439;DHT22;206;48.782;9.252;2023-02-22T16:33:48;14.70;28.40
439;DHT22;206;48.782;9.252;2023-02-22T16:36:16;14.60;28.30
439;DHT22;206;48.782;9.252;2023-02-22T16:38:41;14.60;28.50
439;DHT22;206;48.782;9.252;2023-02-22T16:41:09;14.60;28.40
439;DHT22;206;48.782;9.252;2023-02-22T16:43:35;14.60;28.50
439;DHT22;206;48.782;9.252;2023-02-22T16:46:02;14.50;28.60
439;DHT22;206;48.782;9.252;2023-02-22T16:48:30;14.60;28.80
439;DHT22;206;48.782;9.252;2023-02-22T16:51:00;14.50;28.80
439;DHT22;206;48.782;9.252;2023-02-22T16:53:29;14.50;29.00
439;DHT22;206;48.782;9.252;2023-02-22T16:56:00;14.40;29.10
439;DHT22;206;48.782;9.252;2023-02-22T16:58:27;14.30;30.10
439;DHT22;206;48.782;9.252;2023-02-22T17:00:54;14.20;30.90
439;DHT22;206;48.782;9.252;2023-02-22T17:03:23;14.00;31.20
439;DHT22;206;48.782;9.252;2023-02-22T17:05:49;14.00;31.30
439;DHT22;206;48.782;9.252;2023-02-22T17:08:15;14.00;31.50
439;DHT22;206;48.782;9.252;2023-02-22T17:10:41;13.90;31.70
439;DHT22;206;48.782;9.252;2023-02-22T17:13:07;13.90;32.00
439;DHT22;206;48.782;9.252;2023-02-22T17:15:34;13.90;32.20
439;DHT22;206;48.782;9.252;2023-02-22T17:18:03;13.90;32.20
439;DHT22;206;48.782;9.252;2023-02-22T17:20:35;13.90;32.60
439;DHT22;206;48.782;9.252;2023-02-22T17:23:03;14.00;32.30
439;DHT22;206;48.782;9.252;2023-02-22T17:25:39;14.00;32.30
439;DHT22;206;48.782;9.252;2023-02-22T17:28:06;13.90;32.20
439;DHT22;206;48.782;9.252;2023-02-22T17:30:32;13.90;32.20
439;DHT22;206;48.782;9.252;2023-02-22T17:32:59;13.90;32.30
439;DHT22;206;48.782;9.252;2023-02-22T17:35:29;13.80;32.10
439;DHT22;206;48.782;9.252;2023-02-22T17:37:55;13.80;32.20
439;DHT22;206;48.782;9.252;2023-02-22T17:40:22;13.70;32.60
439;DHT22;206;48.782;9.252;2023-02-22T17:42:48;13.70;32.70
439;DHT22;206;48.782;9.252;2023-02-22T17:45:22;13.60;32.90
439;DHT22;206;48.782;9.252;2023-02-22T17:47:50;13.60;33.30
439;DHT22;206;48.782;9.252;2023-02-22T17:50:17;13.50;33.70
439;DHT22;206;48.782;9.252;2023-02-22T17:52:43;13.40;34.00
439;DHT22;206;48.782;9.252;2023-02-22T17:55:10;13.40;34.60
439;DHT22;206;48.782;9.252;2023-02-22T17:57:36;13.30;34.80
439;DHT22;206;48.782;9.252;2023-02-22T18:00:06;13.30;34.90
439;DHT22;206;48.782;9.252;2023-02-22T18:02:40;13.20;35.40
439;DHT22;206;48.782;9.252;2023-02-22T18:05:11;13.20;35.70
439;DHT22;206;48.782;9.252;2023-02-22T18:07:40;13.20;36.20
439;DHT22;206;48.782;9.252;2023-02-22T18:10:06;13.10;36.30
439;DHT22;206;48.782;9.252;2023-02-22T18:12:36;13.10;36.00
439;DHT22;206;48.782;9.252;2023-02-22T18:15:03;13.00;36.50
439;DHT22;206;48.782;9.252;2023-02-22T18:17:28;13.00;36.20
439;DHT22;206;48.782;9.252;2023-02-22T18:19:55;13.00;36.30
439;DHT22;206;48.782;9.252;2023-02-22T18:22:21;12.90;36.10
439;DHT22;206;48.782;9.252;2023-02-22T18:24:46;12.90;36.90
439;DHT22;206;48.782;9.252;2023-02-22T18:27:12;12.90;36.40
439;DHT22;206;48.782;9.252;2023-02-22T18:29:39;12.90;36.20
439;DHT22;206;48.782;9.252;2023-02-22T18:32:05;12.80;36.30
439;DHT22;206;48.782;9.252;2023-02-22T18:34:36;12.70;36.20
439;DHT22;206;48.782;9.252;2023-02-22T18:37:02;12.60;36.10
439;DHT22;206;48.782;9.252;2023-02-22T18:39:30;12.60;36.20
439;DHT22;206;48.782;9.252;2023-02-22T18:41:58;12.60;36.10
439;DHT22;206;48.782;9.252;2023-02-22T18:44:24;12.70;35.90
439;DHT22;206;48.782;9.252;2023-02-22T18:46:52;12.60;36.10
439;DHT22;206;48.782;9.252;2023-02-22T18:49:18;12.60;36.10
439;DHT22;206;48.782;9.252;2023-02-22T18:51:44;12.60;36.20
439;DHT22;206;48.782;9.252;2023-02-22T18:54:11;12.60;36.20
439;DHT22;206;48.782;9.252;2023-02-22T18:56:38;12.50;36.00
439;DHT22;206;48.782;9.252;2023-02-22T18:59:06;12.40;36.00
439;DHT22;206;48.782;9.252;2023-02-22T19:01:36;12.40;36.00
439;DHT22;206;48.782;9.252;2023-02-22T19:04:07;12.40;36.50
439;DHT22;206;48.782;9.252;2023-02-22T19:06:37;12.30;37.80
439;DHT22;206;48.782;9.252;2023-02-22T19:09:03;12.40;37.90
439;DHT22;206;48.782;9.252;2023-02-22T19:11:33;12.40;36.60
439;DHT22;206;48.782;9.252;2023-02-22T19:14:00;12.40;36.70
439;DHT22;206;48.782;9.252;2023-02-22T19:16:28;12.30;36.70
439;DHT22;206;48.782;9.252;2023-02-22T19:18:55;12.30;37.10
439;DHT22;206;48.782;9.252;2023-02-22T19:21:23;12.20;37.30
439;DHT22;206;48.782;9.252;2023-02-22T19:23:49;12.10;37.90
439;DHT22;206;48.782;9.252;2023-02-22T19:26:23;12.00;38.00
439;DHT22;206;48.782;9.252;2023-02-22T19:28:50;11.90;38.10
439;DHT22;206;48.782;9.252;2023-02-22T19:31:19;11.90;38.30
439;DHT22;206;48.782;9.252;2023-02-22T19:33:46;11.80;38.70
439;DHT22;206;48.782;9.252;2023-02-22T19:36:14;11.70;38.90
439;DHT22;206;48.782;9.252;2023-02-22T19:38:40;11.70;38.80